aviador You're here:

KCQX Decoded Metar

CHATHAM in MA, USA
Report Time2017-09-20 19:52:00
UTC Time2017-09-20 20:03:14
Flight Rules lifr LIFR
Wind030° at 14 Gusting to 27 kt
W.Decomp.*RWY 06: 13.6 kt HW 3.4 kt LCW
W.Rank030° ranks 9
Current wind is above 030° avg. (7.8)
Visibility9999 m
Phenomena:Light Rain
Clouds:Overcast 003 Hf
Ceiling300 ft
Temp19°C (ISA +4)
Dew Point19°C (100% RH)
AAT17.2°C
QNH1006 hPa
Density Alt1,073 ft
Elevation62 ft
Report Wrong Elevation
Raw Report
METAR KCQX 201952Z AUTO 03014G27KT 10SM -RA OVC003 19/19 A2972 RMK
AO2 PK WND 03027/1951 SLP064 P0005 T01890189=

Extra information for KCQX:More info

Metar Taf Metar & Taf Last 4 Metars F.Rules Stats Wind Profile Meteogram Temp Stats Airport Information Weather charts Add Link Nearby VenuesMetar ALERT Operation Metar Decoded Social comments

AIRNAV info for KCQX